ANZ699 NZAA-NZNV
Flight info
| Callsign | ANZ699 |
|---|---|
| Flight time | N/A |
| Altitude | 38000 |
| Route | BROOK4Q KAPAI Y320 LAKAR Y628 UPNIX Y496 DUKOP DUKOP6A |
| Aircraft | A20N/M-SDE2E3FGHIRWXY/LB1 |
Departure
| Time | 2026-05-06 07:17 |
|---|---|
| Airport | Auckland International Airport (NZAA) |
Arrival
| Time | N/A |
|---|---|
| Airport | Invercargill Airport (NZNV) |
| Time | Latitude | Longitude | Altitude | Speed | Heading |
|---|---|---|---|---|---|
| 2026-05-06 06:55 | -37.00739 | 174.79013 | 29 ft | 0 kts | 340° |
| 2026-05-06 07:05 | -37.00742 | 174.79015 | 29 ft | 2 kts | 340° |
| 2026-05-06 07:06 | -37.00758 | 174.79021 | 29 ft | 2 kts | 340° |
| 2026-05-06 07:06 | -37.00771 | 174.79027 | 29 ft | 2 kts | 333° |
| 2026-05-06 07:06 | -37.00781 | 174.79036 | 29 ft | 2 kts | 315° |
| 2026-05-06 07:06 | -37.00791 | 174.79051 | 29 ft | 2 kts | 296° |
| 2026-05-06 07:07 | -37.00796 | 174.79068 | 29 ft | 2 kts | 279° |
| 2026-05-06 07:07 | -37.00796 | 174.79086 | 29 ft | 2 kts | 262° |
| 2026-05-06 07:07 | -37.00792 | 174.79105 | 29 ft | 2 kts | 246° |
| 2026-05-06 07:07 | -37.00790 | 174.79111 | 29 ft | 0 kts | 249° |
| 2026-05-06 07:10 | -37.00809 | 174.79095 | 29 ft | 5 kts | 178° |
| 2026-05-06 07:10 | -37.00845 | 174.79109 | 29 ft | 6 kts | 173° |
| 2026-05-06 07:11 | -37.00887 | 174.79076 | 29 ft | 8 kts | 245° |
| 2026-05-06 07:11 | -37.00908 | 174.79004 | 29 ft | 9 kts | 250° |
| 2026-05-06 07:11 | -37.00928 | 174.78934 | 29 ft | 10 kts | 250° |
| 2026-05-06 07:11 | -37.00954 | 174.78839 | 29 ft | 11 kts | 252° |
| 2026-05-06 07:12 | -37.00981 | 174.78740 | 29 ft | 12 kts | 251° |
| 2026-05-06 07:12 | -37.01007 | 174.78647 | 29 ft | 13 kts | 250° |
| 2026-05-06 07:12 | -37.01024 | 174.78584 | 29 ft | 13 kts | 251° |
| 2026-05-06 07:12 | -37.01055 | 174.78470 | 29 ft | 14 kts | 251° |
| 2026-05-06 07:13 | -37.01086 | 174.78360 | 29 ft | 14 kts | 251° |
| 2026-05-06 07:13 | -37.01121 | 174.78235 | 29 ft | 15 kts | 250° |
| 2026-05-06 07:13 | -37.01154 | 174.78114 | 29 ft | 15 kts | 251° |
| 2026-05-06 07:13 | -37.01186 | 174.77997 | 29 ft | 15 kts | 251° |
| 2026-05-06 07:14 | -37.01226 | 174.77856 | 29 ft | 16 kts | 251° |
| 2026-05-06 07:14 | -37.01263 | 174.77722 | 29 ft | 16 kts | 251° |
| 2026-05-06 07:14 | -37.01297 | 174.77600 | 29 ft | 16 kts | 251° |
| 2026-05-06 07:14 | -37.01337 | 174.77454 | 29 ft | 16 kts | 251° |
| 2026-05-06 07:15 | -37.01375 | 174.77316 | 29 ft | 17 kts | 251° |
| 2026-05-06 07:15 | -37.01411 | 174.77185 | 29 ft | 16 kts | 251° |
| 2026-05-06 07:15 | -37.01439 | 174.77119 | 29 ft | 7 kts | 210° |
| 2026-05-06 07:15 | -37.01493 | 174.77101 | 29 ft | 8 kts | 192° |
| 2026-05-06 07:16 | -37.01552 | 174.77086 | 29 ft | 9 kts | 191° |
| 2026-05-06 07:16 | -37.01613 | 174.77116 | 29 ft | 10 kts | 108° |
| 2026-05-06 07:16 | -37.01595 | 174.77210 | 29 ft | 15 kts | 71° |
| 2026-05-06 07:16 | -37.01494 | 174.77577 | 29 ft | 81 kts | 71° |
| 2026-05-06 07:17 | -37.01230 | 174.78534 | 29 ft | 144 kts | 71° |
| 2026-05-06 07:17 | -37.00892 | 174.79750 | 249 ft | 170 kts | 69° |
| 2026-05-06 07:17 | -37.00525 | 174.81108 | 948 ft | 169 kts | 68° |
| 2026-05-06 07:17 | -37.00154 | 174.82457 | 1682 ft | 168 kts | 66° |
| 2026-05-06 07:18 | -36.99794 | 174.83736 | 2218 ft | 178 kts | 65° |
| 2026-05-06 07:18 | -36.99366 | 174.85223 | 2685 ft | 194 kts | 66° |
| 2026-05-06 07:18 | -36.98892 | 174.86881 | 3235 ft | 207 kts | 66° |
| 2026-05-06 07:18 | -36.98466 | 174.88377 | 3742 ft | 218 kts | 66° |
| 2026-05-06 07:19 | -36.98192 | 174.90065 | 4271 ft | 236 kts | 91° |